sensor_id;sensor_type;location;lat;lon;timestamp;P1;durP1;ratioP1;P2;durP2;ratioP2
5339;SDS011;2692;48.848;8.924;2022-12-18T00:01:47;14.90;;;6.40;;
5339;SDS011;2692;48.848;8.924;2022-12-18T00:04:22;5.53;;;4.40;;
5339;SDS011;2692;48.848;8.924;2022-12-18T00:06:48;7.70;;;5.07;;
5339;SDS011;2692;48.848;8.924;2022-12-18T00:09:13;6.47;;;4.33;;
5339;SDS011;2692;48.848;8.924;2022-12-18T00:11:38;8.73;;;4.20;;
5339;SDS011;2692;48.848;8.924;2022-12-18T00:14:04;7.67;;;5.00;;
5339;SDS011;2692;48.848;8.924;2022-12-18T00:16:29;7.43;;;3.93;;
5339;SDS011;2692;48.848;8.924;2022-12-18T00:18:59;8.70;;;4.10;;
5339;SDS011;2692;48.848;8.924;2022-12-18T00:21:25;8.73;;;5.83;;
5339;SDS011;2692;48.848;8.924;2022-12-18T00:23:50;5.50;;;3.33;;
5339;SDS011;2692;48.848;8.924;2022-12-18T00:26:17;9.50;;;6.10;;
5339;SDS011;2692;48.848;8.924;2022-12-18T00:28:43;10.70;;;6.13;;
5339;SDS011;2692;48.848;8.924;2022-12-18T00:31:10;7.90;;;5.27;;
5339;SDS011;2692;48.848;8.924;2022-12-18T00:33:36;12.03;;;6.43;;
5339;SDS011;2692;48.848;8.924;2022-12-18T00:36:02;11.03;;;6.60;;
5339;SDS011;2692;48.848;8.924;2022-12-18T00:38:27;11.13;;;6.00;;
5339;SDS011;2692;48.848;8.924;2022-12-18T00:40:52;9.50;;;5.60;;
5339;SDS011;2692;48.848;8.924;2022-12-18T00:43:17;7.63;;;4.80;;
5339;SDS011;2692;48.848;8.924;2022-12-18T00:45:42;7.03;;;5.47;;
5339;SDS011;2692;48.848;8.924;2022-12-18T00:48:07;11.20;;;5.95;;
5339;SDS011;2692;48.848;8.924;2022-12-18T00:50:33;7.13;;;4.53;;
5339;SDS011;2692;48.848;8.924;2022-12-18T00:52:58;11.50;;;5.23;;
5339;SDS011;2692;48.848;8.924;2022-12-18T00:55:23;11.60;;;4.93;;
5339;SDS011;2692;48.848;8.924;2022-12-18T00:57:48;8.67;;;4.70;;
5339;SDS011;2692;48.848;8.924;2022-12-18T01:00:15;11.77;;;5.53;;
5339;SDS011;2692;48.848;8.924;2022-12-18T01:02:40;14.50;;;4.77;;
5339;SDS011;2692;48.848;8.924;2022-12-18T01:05:06;9.87;;;5.67;;
5339;SDS011;2692;48.848;8.924;2022-12-18T01:07:31;7.30;;;4.93;;
5339;SDS011;2692;48.848;8.924;2022-12-18T01:09:56;11.13;;;4.47;;
5339;SDS011;2692;48.848;8.924;2022-12-18T01:12:22;9.33;;;4.47;;
5339;SDS011;2692;48.848;8.924;2022-12-18T01:14:47;38.30;;;6.70;;
5339;SDS011;2692;48.848;8.924;2022-12-18T01:17:12;11.57;;;5.83;;
5339;SDS011;2692;48.848;8.924;2022-12-18T01:19:37;8.15;;;4.95;;
5339;SDS011;2692;48.848;8.924;2022-12-18T01:22:02;5.88;;;4.60;;
5339;SDS011;2692;48.848;8.924;2022-12-18T01:24:28;8.57;;;4.63;;
5339;SDS011;2692;48.848;8.924;2022-12-18T01:26:53;8.10;;;4.80;;
5339;SDS011;2692;48.848;8.924;2022-12-18T01:29:18;20.63;;;6.23;;
5339;SDS011;2692;48.848;8.924;2022-12-18T01:31:43;5.43;;;4.00;;
5339;SDS011;2692;48.848;8.924;2022-12-18T01:34:09;10.70;;;4.63;;
5339;SDS011;2692;48.848;8.924;2022-12-18T01:36:35;5.63;;;3.83;;
5339;SDS011;2692;48.848;8.924;2022-12-18T01:39:02;12.47;;;3.70;;
5339;SDS011;2692;48.848;8.924;2022-12-18T01:41:28;4.87;;;2.73;;
5339;SDS011;2692;48.848;8.924;2022-12-18T01:47:00;15.67;;;6.20;;
5339;SDS011;2692;48.848;8.924;2022-12-18T01:49:26;5.70;;;4.47;;
5339;SDS011;2692;48.848;8.924;2022-12-18T01:51:51;16.23;;;5.65;;
5339;SDS011;2692;48.848;8.924;2022-12-18T01:54:16;7.10;;;4.50;;
5339;SDS011;2692;48.848;8.924;2022-12-18T01:56:42;8.93;;;5.50;;
5339;SDS011;2692;48.848;8.924;2022-12-18T01:59:08;9.07;;;5.10;;
5339;SDS011;2692;48.848;8.924;2022-12-18T02:01:34;7.00;;;4.87;;
5339;SDS011;2692;48.848;8.924;2022-12-18T02:06:45;10.33;;;3.87;;
5339;SDS011;2692;48.848;8.924;2022-12-18T02:09:15;9.53;;;5.73;;
5339;SDS011;2692;48.848;8.924;2022-12-18T02:14:44;6.70;;;4.90;;
5339;SDS011;2692;48.848;8.924;2022-12-18T02:17:14;9.43;;;4.27;;
5339;SDS011;2692;48.848;8.924;2022-12-18T02:27:03;7.57;;;4.47;;
5339;SDS011;2692;48.848;8.924;2022-12-18T02:29:32;11.03;;;6.83;;
5339;SDS011;2692;48.848;8.924;2022-12-18T02:31:59;17.83;;;4.97;;
5339;SDS011;2692;48.848;8.924;2022-12-18T02:34:26;9.33;;;5.90;;
5339;SDS011;2692;48.848;8.924;2022-12-18T02:36:52;7.87;;;5.40;;
5339;SDS011;2692;48.848;8.924;2022-12-18T02:39:18;9.77;;;5.07;;
5339;SDS011;2692;48.848;8.924;2022-12-18T02:41:44;9.07;;;5.20;;
5339;SDS011;2692;48.848;8.924;2022-12-18T02:44:10;5.77;;;4.87;;
5339;SDS011;2692;48.848;8.924;2022-12-18T02:46:37;8.87;;;6.03;;
5339;SDS011;2692;48.848;8.924;2022-12-18T02:49:49;10.60;;;5.40;;
5339;SDS011;2692;48.848;8.924;2022-12-18T02:54:29;17.53;;;6.00;;
5339;SDS011;2692;48.848;8.924;2022-12-18T02:56:56;7.80;;;6.10;;
5339;SDS011;2692;48.848;8.924;2022-12-18T02:59:25;8.83;;;4.90;;
5339;SDS011;2692;48.848;8.924;2022-12-18T03:01:57;8.97;;;5.70;;
5339;SDS011;2692;48.848;8.924;2022-12-18T03:04:27;17.07;;;6.53;;
5339;SDS011;2692;48.848;8.924;2022-12-18T03:06:54;11.10;;;7.33;;
5339;SDS011;2692;48.848;8.924;2022-12-18T03:09:21;11.73;;;7.73;;
5339;SDS011;2692;48.848;8.924;2022-12-18T03:11:49;9.70;;;6.53;;
5339;SDS011;2692;48.848;8.924;2022-12-18T03:14:36;12.07;;;6.17;;
5339;SDS011;2692;48.848;8.924;2022-12-18T03:17:03;7.97;;;5.90;;
5339;SDS011;2692;48.848;8.924;2022-12-18T03:19:29;6.23;;;4.57;;
5339;SDS011;2692;48.848;8.924;2022-12-18T03:21:56;13.00;;;6.93;;
5339;SDS011;2692;48.848;8.924;2022-12-18T03:24:23;11.97;;;6.90;;
5339;SDS011;2692;48.848;8.924;2022-12-18T03:26:50;9.17;;;6.23;;
5339;SDS011;2692;48.848;8.924;2022-12-18T03:29:18;5.70;;;4.80;;
5339;SDS011;2692;48.848;8.924;2022-12-18T03:31:47;8.40;;;5.57;;
5339;SDS011;2692;48.848;8.924;2022-12-18T03:34:13;13.10;;;5.47;;
5339;SDS011;2692;48.848;8.924;2022-12-18T03:36:40;7.20;;;5.70;;
5339;SDS011;2692;48.848;8.924;2022-12-18T03:39:05;15.80;;;7.67;;
5339;SDS011;2692;48.848;8.924;2022-12-18T03:41:35;10.40;;;6.10;;
5339;SDS011;2692;48.848;8.924;2022-12-18T03:46:41;10.03;;;4.27;;
5339;SDS011;2692;48.848;8.924;2022-12-18T03:49:14;11.53;;;6.47;;
5339;SDS011;2692;48.848;8.924;2022-12-18T03:51:48;10.97;;;6.50;;
5339;SDS011;2692;48.848;8.924;2022-12-18T03:54:15;8.23;;;5.70;;
5339;SDS011;2692;48.848;8.924;2022-12-18T03:56:42;9.97;;;5.23;;
5339;SDS011;2692;48.848;8.924;2022-12-18T03:59:08;8.07;;;5.20;;
5339;SDS011;2692;48.848;8.924;2022-12-18T04:01:36;11.30;;;5.50;;
5339;SDS011;2692;48.848;8.924;2022-12-18T04:04:03;7.90;;;5.43;;
5339;SDS011;2692;48.848;8.924;2022-12-18T04:06:29;15.83;;;6.10;;
5339;SDS011;2692;48.848;8.924;2022-12-18T04:08:54;8.63;;;6.20;;
5339;SDS011;2692;48.848;8.924;2022-12-18T04:11:20;10.80;;;6.50;;
5339;SDS011;2692;48.848;8.924;2022-12-18T04:13:45;9.53;;;6.03;;
5339;SDS011;2692;48.848;8.924;2022-12-18T04:16:10;7.93;;;5.30;;
5339;SDS011;2692;48.848;8.924;2022-12-18T04:18:35;9.13;;;6.07;;
5339;SDS011;2692;48.848;8.924;2022-12-18T04:21:01;10.10;;;6.40;;
5339;SDS011;2692;48.848;8.924;2022-12-18T04:23:26;9.83;;;5.60;;
5339;SDS011;2692;48.848;8.924;2022-12-18T04:25:51;10.23;;;5.13;;
5339;SDS011;2692;48.848;8.924;2022-12-18T04:28:16;10.03;;;5.20;;
5339;SDS011;2692;48.848;8.924;2022-12-18T04:30:42;8.97;;;5.27;;
5339;SDS011;2692;48.848;8.924;2022-12-18T04:33:10;6.70;;;4.53;;
5339;SDS011;2692;48.848;8.924;2022-12-18T04:35:36;10.23;;;6.10;;
5339;SDS011;2692;48.848;8.924;2022-12-18T04:38:01;12.27;;;6.80;;
5339;SDS011;2692;48.848;8.924;2022-12-18T04:40:26;7.90;;;5.33;;
5339;SDS011;2692;48.848;8.924;2022-12-18T04:42:51;9.27;;;6.27;;
5339;SDS011;2692;48.848;8.924;2022-12-18T04:45:16;6.17;;;4.47;;
5339;SDS011;2692;48.848;8.924;2022-12-18T04:47:42;6.93;;;5.90;;
5339;SDS011;2692;48.848;8.924;2022-12-18T04:50:07;8.93;;;5.60;;
5339;SDS011;2692;48.848;8.924;2022-12-18T04:52:32;10.67;;;5.53;;
5339;SDS011;2692;48.848;8.924;2022-12-18T04:54:57;11.90;;;7.07;;
5339;SDS011;2692;48.848;8.924;2022-12-18T04:57:23;12.97;;;5.70;;
5339;SDS011;2692;48.848;8.924;2022-12-18T04:59:48;17.97;;;7.27;;
5339;SDS011;2692;48.848;8.924;2022-12-18T05:02:13;8.50;;;5.90;;
5339;SDS011;2692;48.848;8.924;2022-12-18T05:04:38;8.00;;;5.37;;
5339;SDS011;2692;48.848;8.924;2022-12-18T05:07:03;10.60;;;4.60;;
5339;SDS011;2692;48.848;8.924;2022-12-18T05:09:28;9.07;;;6.10;;
5339;SDS011;2692;48.848;8.924;2022-12-18T05:11:54;10.93;;;5.37;;
5339;SDS011;2692;48.848;8.924;2022-12-18T05:14:19;8.83;;;4.60;;
5339;SDS011;2692;48.848;8.924;2022-12-18T05:16:44;11.00;;;5.70;;
5339;SDS011;2692;48.848;8.924;2022-12-18T05:19:09;11.00;;;5.00;;
5339;SDS011;2692;48.848;8.924;2022-12-18T05:21:34;6.70;;;4.07;;
5339;SDS011;2692;48.848;8.924;2022-12-18T05:24:00;10.20;;;5.50;;
5339;SDS011;2692;48.848;8.924;2022-12-18T05:26:25;9.33;;;5.40;;
5339;SDS011;2692;48.848;8.924;2022-12-18T05:28:50;7.57;;;4.73;;
5339;SDS011;2692;48.848;8.924;2022-12-18T05:31:15;9.90;;;5.47;;
5339;SDS011;2692;48.848;8.924;2022-12-18T05:33:40;9.83;;;4.17;;
5339;SDS011;2692;48.848;8.924;2022-12-18T05:36:06;4.27;;;3.50;;
5339;SDS011;2692;48.848;8.924;2022-12-18T05:38:32;6.53;;;5.00;;
5339;SDS011;2692;48.848;8.924;2022-12-18T05:40:58;13.00;;;5.40;;
5339;SDS011;2692;48.848;8.924;2022-12-18T05:43:24;5.40;;;3.87;;
5339;SDS011;2692;48.848;8.924;2022-12-18T05:45:49;8.60;;;5.47;;
5339;SDS011;2692;48.848;8.924;2022-12-18T05:48:15;7.53;;;4.73;;
5339;SDS011;2692;48.848;8.924;2022-12-18T05:50:41;9.43;;;4.10;;
5339;SDS011;2692;48.848;8.924;2022-12-18T05:53:07;8.33;;;5.27;;
5339;SDS011;2692;48.848;8.924;2022-12-18T05:55:33;13.80;;;6.27;;
5339;SDS011;2692;48.848;8.924;2022-12-18T05:57:58;7.47;;;4.40;;
5339;SDS011;2692;48.848;8.924;2022-12-18T06:00:24;9.30;;;4.90;;
5339;SDS011;2692;48.848;8.924;2022-12-18T06:02:49;5.30;;;4.40;;
5339;SDS011;2692;48.848;8.924;2022-12-18T06:05:14;6.17;;;3.60;;
5339;SDS011;2692;48.848;8.924;2022-12-18T06:07:39;12.03;;;5.73;;
5339;SDS011;2692;48.848;8.924;2022-12-18T06:10:04;8.73;;;5.30;;
5339;SDS011;2692;48.848;8.924;2022-12-18T06:12:30;9.10;;;5.70;;
5339;SDS011;2692;48.848;8.924;2022-12-18T06:14:55;12.33;;;6.43;;
5339;SDS011;2692;48.848;8.924;2022-12-18T06:17:21;12.50;;;5.80;;
5339;SDS011;2692;48.848;8.924;2022-12-18T06:19:46;11.73;;;6.20;;
5339;SDS011;2692;48.848;8.924;2022-12-18T06:22:11;8.57;;;5.45;;
5339;SDS011;2692;48.848;8.924;2022-12-18T06:24:36;10.43;;;6.13;;
5339;SDS011;2692;48.848;8.924;2022-12-18T06:27:01;9.63;;;5.80;;
5339;SDS011;2692;48.848;8.924;2022-12-18T06:29:27;8.57;;;5.47;;
5339;SDS011;2692;48.848;8.924;2022-12-18T06:31:52;12.77;;;6.00;;
5339;SDS011;2692;48.848;8.924;2022-12-18T06:34:17;19.30;;;6.53;;
5339;SDS011;2692;48.848;8.924;2022-12-18T06:36:42;6.30;;;5.10;;
5339;SDS011;2692;48.848;8.924;2022-12-18T06:39:07;9.50;;;6.80;;
5339;SDS011;2692;48.848;8.924;2022-12-18T06:41:33;9.03;;;5.47;;
5339;SDS011;2692;48.848;8.924;2022-12-18T06:43:58;14.20;;;8.03;;
5339;SDS011;2692;48.848;8.924;2022-12-18T06:46:23;7.13;;;4.80;;
5339;SDS011;2692;48.848;8.924;2022-12-18T06:48:51;8.70;;;4.67;;
5339;SDS011;2692;48.848;8.924;2022-12-18T06:51:17;13.73;;;6.77;;
5339;SDS011;2692;48.848;8.924;2022-12-18T06:53:42;12.20;;;6.73;;
5339;SDS011;2692;48.848;8.924;2022-12-18T06:56:07;10.47;;;5.77;;
5339;SDS011;2692;48.848;8.924;2022-12-18T06:58:33;7.23;;;4.97;;
5339;SDS011;2692;48.848;8.924;2022-12-18T07:01:01;9.93;;;5.10;;
5339;SDS011;2692;48.848;8.924;2022-12-18T07:03:26;8.50;;;5.47;;
5339;SDS011;2692;48.848;8.924;2022-12-18T07:05:51;10.67;;;6.40;;
5339;SDS011;2692;48.848;8.924;2022-12-18T07:08:16;9.32;;;5.63;;
5339;SDS011;2692;48.848;8.924;2022-12-18T07:10:42;19.50;;;9.40;;
5339;SDS011;2692;48.848;8.924;2022-12-18T07:13:07;12.73;;;6.40;;
5339;SDS011;2692;48.848;8.924;2022-12-18T07:15:33;13.13;;;7.43;;
5339;SDS011;2692;48.848;8.924;2022-12-18T07:17:58;10.87;;;6.80;;
5339;SDS011;2692;48.848;8.924;2022-12-18T07:20:23;9.40;;;5.67;;
5339;SDS011;2692;48.848;8.924;2022-12-18T07:22:48;10.27;;;6.33;;
5339;SDS011;2692;48.848;8.924;2022-12-18T07:25:13;8.07;;;5.45;;
5339;SDS011;2692;48.848;8.924;2022-12-18T07:27:38;8.30;;;5.70;;
5339;SDS011;2692;48.848;8.924;2022-12-18T07:30:04;14.20;;;6.67;;
5339;SDS011;2692;48.848;8.924;2022-12-18T07:32:29;13.07;;;6.73;;
5339;SDS011;2692;48.848;8.924;2022-12-18T07:34:55;11.57;;;7.10;;
5339;SDS011;2692;48.848;8.924;2022-12-18T07:37:20;13.57;;;6.57;;
5339;SDS011;2692;48.848;8.924;2022-12-18T07:39:45;9.93;;;6.93;;
5339;SDS011;2692;48.848;8.924;2022-12-18T07:42:10;13.63;;;8.33;;
5339;SDS011;2692;48.848;8.924;2022-12-18T07:44:54;9.50;;;6.03;;
5339;SDS011;2692;48.848;8.924;2022-12-18T07:47:19;8.83;;;5.67;;
5339;SDS011;2692;48.848;8.924;2022-12-18T07:49:44;12.00;;;7.37;;
5339;SDS011;2692;48.848;8.924;2022-12-18T07:52:09;11.18;;;7.78;;
5339;SDS011;2692;48.848;8.924;2022-12-18T07:54:37;10.40;;;6.20;;
5339;SDS011;2692;48.848;8.924;2022-12-18T07:57:02;11.00;;;7.03;;
5339;SDS011;2692;48.848;8.924;2022-12-18T07:59:27;18.73;;;9.00;;
5339;SDS011;2692;48.848;8.924;2022-12-18T08:01:52;19.02;;;11.63;;
5339;SDS011;2692;48.848;8.924;2022-12-18T08:04:17;33.03;;;13.43;;
5339;SDS011;2692;48.848;8.924;2022-12-18T08:06:42;13.87;;;9.97;;
5339;SDS011;2692;48.848;8.924;2022-12-18T08:09:09;10.10;;;7.73;;
5339;SDS011;2692;48.848;8.924;2022-12-18T08:11:34;24.70;;;10.93;;
5339;SDS011;2692;48.848;8.924;2022-12-18T08:13:59;16.33;;;10.43;;
5339;SDS011;2692;48.848;8.924;2022-12-18T08:16:25;10.03;;;7.77;;
5339;SDS011;2692;48.848;8.924;2022-12-18T08:18:51;10.53;;;6.10;;
5339;SDS011;2692;48.848;8.924;2022-12-18T08:23:41;10.67;;;6.97;;
5339;SDS011;2692;48.848;8.924;2022-12-18T08:26:07;24.63;;;8.43;;
5339;SDS011;2692;48.848;8.924;2022-12-18T08:28:32;13.80;;;7.57;;
5339;SDS011;2692;48.848;8.924;2022-12-18T08:30:58;9.40;;;6.73;;
5339;SDS011;2692;48.848;8.924;2022-12-18T08:33:23;8.93;;;6.53;;
5339;SDS011;2692;48.848;8.924;2022-12-18T08:35:48;14.00;;;8.73;;
5339;SDS011;2692;48.848;8.924;2022-12-18T08:38:13;14.00;;;7.83;;
5339;SDS011;2692;48.848;8.924;2022-12-18T08:40:38;17.23;;;8.27;;
5339;SDS011;2692;48.848;8.924;2022-12-18T08:43:03;28.13;;;6.97;;
5339;SDS011;2692;48.848;8.924;2022-12-18T08:45:47;10.77;;;6.80;;
5339;SDS011;2692;48.848;8.924;2022-12-18T08:48:12;11.87;;;7.77;;
5339;SDS011;2692;48.848;8.924;2022-12-18T08:50:37;10.73;;;6.60;;
5339;SDS011;2692;48.848;8.924;2022-12-18T08:53:03;7.50;;;6.10;;
5339;SDS011;2692;48.848;8.924;2022-12-18T08:55:28;11.10;;;7.13;;
5339;SDS011;2692;48.848;8.924;2022-12-18T08:57:53;9.97;;;6.20;;
5339;SDS011;2692;48.848;8.924;2022-12-18T09:00:18;14.68;;;7.03;;
5339;SDS011;2692;48.848;8.924;2022-12-18T09:02:44;11.20;;;6.87;;
5339;SDS011;2692;48.848;8.924;2022-12-18T09:05:09;8.57;;;6.40;;
5339;SDS011;2692;48.848;8.924;2022-12-18T09:07:34;13.13;;;7.80;;
5339;SDS011;2692;48.848;8.924;2022-12-18T09:09:59;8.57;;;6.50;;
5339;SDS011;2692;48.848;8.924;2022-12-18T09:12:25;12.47;;;8.23;;
5339;SDS011;2692;48.848;8.924;2022-12-18T09:14:50;11.53;;;6.00;;
5339;SDS011;2692;48.848;8.924;2022-12-18T09:17:15;16.20;;;7.67;;
5339;SDS011;2692;48.848;8.924;2022-12-18T09:19:40;8.73;;;6.00;;
5339;SDS011;2692;48.848;8.924;2022-12-18T09:22:06;11.93;;;7.60;;
5339;SDS011;2692;48.848;8.924;2022-12-18T09:24:31;8.60;;;6.10;;
5339;SDS011;2692;48.848;8.924;2022-12-18T09:26:56;8.27;;;5.97;;
5339;SDS011;2692;48.848;8.924;2022-12-18T09:29:21;7.75;;;5.68;;
5339;SDS011;2692;48.848;8.924;2022-12-18T09:31:46;8.20;;;5.57;;
5339;SDS011;2692;48.848;8.924;2022-12-18T09:34:12;9.83;;;6.40;;
5339;SDS011;2692;48.848;8.924;2022-12-18T09:36:38;12.50;;;6.03;;
5339;SDS011;2692;48.848;8.924;2022-12-18T09:39:03;11.10;;;6.53;;
5339;SDS011;2692;48.848;8.924;2022-12-18T09:44:03;6.90;;;5.57;;
5339;SDS011;2692;48.848;8.924;2022-12-18T09:46:33;8.93;;;5.83;;
5339;SDS011;2692;48.848;8.924;2022-12-18T09:49:01;7.30;;;5.30;;
5339;SDS011;2692;48.848;8.924;2022-12-18T09:51:29;7.70;;;5.70;;
5339;SDS011;2692;48.848;8.924;2022-12-18T09:53:57;5.43;;;4.80;;
5339;SDS011;2692;48.848;8.924;2022-12-18T09:56:23;11.90;;;5.47;;
5339;SDS011;2692;48.848;8.924;2022-12-18T09:58:55;11.63;;;6.73;;
5339;SDS011;2692;48.848;8.924;2022-12-18T10:01:22;6.83;;;5.23;;
5339;SDS011;2692;48.848;8.924;2022-12-18T10:03:48;9.70;;;6.20;;
5339;SDS011;2692;48.848;8.924;2022-12-18T10:06:14;7.97;;;4.80;;
5339;SDS011;2692;48.848;8.924;2022-12-18T10:13:54;6.93;;;5.90;;
5339;SDS011;2692;48.848;8.924;2022-12-18T10:26:23;20.47;;;5.70;;
5339;SDS011;2692;48.848;8.924;2022-12-18T10:28:49;6.60;;;4.70;;
5339;SDS011;2692;48.848;8.924;2022-12-18T10:31:16;11.87;;;6.50;;
5339;SDS011;2692;48.848;8.924;2022-12-18T10:33:41;6.37;;;4.93;;
5339;SDS011;2692;48.848;8.924;2022-12-18T10:36:07;6.03;;;4.53;;
5339;SDS011;2692;48.848;8.924;2022-12-18T10:38:32;7.77;;;5.30;;
5339;SDS011;2692;48.848;8.924;2022-12-18T10:43:30;16.83;;;7.30;;
5339;SDS011;2692;48.848;8.924;2022-12-18T10:48:24;10.73;;;5.93;;
5339;SDS011;2692;48.848;8.924;2022-12-18T10:50:49;4.70;;;4.07;;
5339;SDS011;2692;48.848;8.924;2022-12-18T10:53:19;14.63;;;6.10;;
5339;SDS011;2692;48.848;8.924;2022-12-18T10:55:44;9.13;;;5.60;;
5339;SDS011;2692;48.848;8.924;2022-12-18T11:01:15;6.37;;;4.50;;
5339;SDS011;2692;48.848;8.924;2022-12-18T11:08:31;7.80;;;5.70;;
5339;SDS011;2692;48.848;8.924;2022-12-18T11:10:56;10.50;;;6.13;;
5339;SDS011;2692;48.848;8.924;2022-12-18T11:13:22;9.57;;;5.60;;
5339;SDS011;2692;48.848;8.924;2022-12-18T11:15:48;7.03;;;5.43;;
5339;SDS011;2692;48.848;8.924;2022-12-18T11:18:17;8.00;;;6.47;;
5339;SDS011;2692;48.848;8.924;2022-12-18T11:20:44;6.47;;;5.00;;
5339;SDS011;2692;48.848;8.924;2022-12-18T11:23:14;7.57;;;6.10;;
5339;SDS011;2692;48.848;8.924;2022-12-18T11:25:40;10.13;;;6.90;;
5339;SDS011;2692;48.848;8.924;2022-12-18T11:29:16;10.43;;;6.03;;
5339;SDS011;2692;48.848;8.924;2022-12-18T11:31:43;7.07;;;4.77;;
5339;SDS011;2692;48.848;8.924;2022-12-18T11:34:05;5.33;;;4.40;;
5339;SDS011;2692;48.848;8.924;2022-12-18T11:36:36;7.10;;;5.70;;
5339;SDS011;2692;48.848;8.924;2022-12-18T11:39:05;11.30;;;7.47;;
5339;SDS011;2692;48.848;8.924;2022-12-18T11:41:36;9.80;;;5.77;;
5339;SDS011;2692;48.848;8.924;2022-12-18T11:44:29;7.47;;;5.10;;
5339;SDS011;2692;48.848;8.924;2022-12-18T11:47:00;13.43;;;6.30;;
5339;SDS011;2692;48.848;8.924;2022-12-18T11:49:34;8.73;;;6.00;;
5339;SDS011;2692;48.848;8.924;2022-12-18T11:54:25;10.63;;;6.50;;
5339;SDS011;2692;48.848;8.924;2022-12-18T11:56:55;7.10;;;5.33;;
5339;SDS011;2692;48.848;8.924;2022-12-18T11:59:30;12.30;;;7.23;;
5339;SDS011;2692;48.848;8.924;2022-12-18T12:02:09;10.70;;;5.43;;
5339;SDS011;2692;48.848;8.924;2022-12-18T12:04:41;7.67;;;6.30;;
5339;SDS011;2692;48.848;8.924;2022-12-18T12:15:28;11.17;;;7.03;;
5339;SDS011;2692;48.848;8.924;2022-12-18T12:23:14;10.32;;;6.38;;
5339;SDS011;2692;48.848;8.924;2022-12-18T12:25:46;10.37;;;6.57;;
5339;SDS011;2692;48.848;8.924;2022-12-18T12:28:20;10.53;;;6.63;;
5339;SDS011;2692;48.848;8.924;2022-12-18T12:40:59;11.38;;;7.22;;
5339;SDS011;2692;48.848;8.924;2022-12-18T12:43:38;9.80;;;6.27;;
5339;SDS011;2692;48.848;8.924;2022-12-18T12:46:07;12.23;;;7.83;;
5339;SDS011;2692;48.848;8.924;2022-12-18T12:48:46;10.83;;;6.57;;
5339;SDS011;2692;48.848;8.924;2022-12-18T12:53:40;13.13;;;7.43;;
5339;SDS011;2692;48.848;8.924;2022-12-18T12:56:06;6.90;;;5.23;;
5339;SDS011;2692;48.848;8.924;2022-12-18T13:01:14;8.23;;;6.53;;
5339;SDS011;2692;48.848;8.924;2022-12-18T13:08:52;11.87;;;7.53;;
5339;SDS011;2692;48.848;8.924;2022-12-18T13:17:14;6.10;;;4.97;;
5339;SDS011;2692;48.848;8.924;2022-12-18T13:19:39;13.27;;;7.40;;
5339;SDS011;2692;48.848;8.924;2022-12-18T13:22:04;13.13;;;7.80;;
5339;SDS011;2692;48.848;8.924;2022-12-18T13:24:45;7.03;;;5.93;;
5339;SDS011;2692;48.848;8.924;2022-12-18T13:29:53;11.60;;;6.97;;
5339;SDS011;2692;48.848;8.924;2022-12-18T13:32:20;12.50;;;8.10;;
5339;SDS011;2692;48.848;8.924;2022-12-18T13:34:45;7.47;;;5.80;;
5339;SDS011;2692;48.848;8.924;2022-12-18T13:39:54;11.23;;;6.00;;
5339;SDS011;2692;48.848;8.924;2022-12-18T13:45:34;13.60;;;8.00;;
5339;SDS011;2692;48.848;8.924;2022-12-18T13:47:55;13.57;;;8.23;;
5339;SDS011;2692;48.848;8.924;2022-12-18T13:50:22;10.90;;;6.97;;
5339;SDS011;2692;48.848;8.924;2022-12-18T13:52:48;9.27;;;6.00;;
5339;SDS011;2692;48.848;8.924;2022-12-18T13:55:14;10.83;;;7.30;;
5339;SDS011;2692;48.848;8.924;2022-12-18T13:57:40;10.07;;;7.23;;
5339;SDS011;2692;48.848;8.924;2022-12-18T14:00:40;7.35;;;5.45;;
5339;SDS011;2692;48.848;8.924;2022-12-18T14:02:57;11.37;;;8.37;;
5339;SDS011;2692;48.848;8.924;2022-12-18T14:05:23;15.13;;;7.60;;
5339;SDS011;2692;48.848;8.924;2022-12-18T14:07:49;10.03;;;6.97;;
5339;SDS011;2692;48.848;8.924;2022-12-18T14:10:15;8.13;;;5.60;;
5339;SDS011;2692;48.848;8.924;2022-12-18T14:12:44;20.33;;;8.10;;
5339;SDS011;2692;48.848;8.924;2022-12-18T14:17:53;8.70;;;6.77;;
5339;SDS011;2692;48.848;8.924;2022-12-18T14:20:18;9.63;;;6.67;;
5339;SDS011;2692;48.848;8.924;2022-12-18T14:22:48;8.23;;;6.17;;
5339;SDS011;2692;48.848;8.924;2022-12-18T14:25:18;10.53;;;6.93;;
5339;SDS011;2692;48.848;8.924;2022-12-18T14:27:44;8.40;;;6.43;;
5339;SDS011;2692;48.848;8.924;2022-12-18T14:35:52;10.90;;;7.03;;
5339;SDS011;2692;48.848;8.924;2022-12-18T14:38:28;7.20;;;5.50;;
5339;SDS011;2692;48.848;8.924;2022-12-18T14:40:55;10.83;;;5.87;;
5339;SDS011;2692;48.848;8.924;2022-12-18T14:43:20;9.93;;;7.03;;
5339;SDS011;2692;48.848;8.924;2022-12-18T14:45:46;7.07;;;5.37;;
5339;SDS011;2692;48.848;8.924;2022-12-18T14:50:36;14.63;;;10.45;;
5339;SDS011;2692;48.848;8.924;2022-12-18T14:53:02;18.13;;;14.43;;
5339;SDS011;2692;48.848;8.924;2022-12-18T14:55:27;30.77;;;20.70;;
5339;SDS011;2692;48.848;8.924;2022-12-18T14:57:53;25.50;;;17.30;;
5339;SDS011;2692;48.848;8.924;2022-12-18T15:00:20;15.20;;;11.43;;
5339;SDS011;2692;48.848;8.924;2022-12-18T15:02:55;13.43;;;9.07;;
5339;SDS011;2692;48.848;8.924;2022-12-18T15:05:25;11.00;;;8.53;;
5339;SDS011;2692;48.848;8.924;2022-12-18T15:07:52;12.43;;;8.00;;
5339;SDS011;2692;48.848;8.924;2022-12-18T15:17:58;8.53;;;6.23;;
5339;SDS011;2692;48.848;8.924;2022-12-18T15:20:23;8.50;;;6.33;;
5339;SDS011;2692;48.848;8.924;2022-12-18T15:22:48;9.13;;;7.03;;
5339;SDS011;2692;48.848;8.924;2022-12-18T15:27:51;7.37;;;6.07;;
5339;SDS011;2692;48.848;8.924;2022-12-18T15:30:17;8.50;;;6.80;;
5339;SDS011;2692;48.848;8.924;2022-12-18T15:32:43;11.50;;;6.23;;
5339;SDS011;2692;48.848;8.924;2022-12-18T15:37:34;9.03;;;6.20;;
5339;SDS011;2692;48.848;8.924;2022-12-18T15:39:59;8.10;;;5.90;;
5339;SDS011;2692;48.848;8.924;2022-12-18T15:42:24;4.80;;;4.00;;
5339;SDS011;2692;48.848;8.924;2022-12-18T15:45:11;7.47;;;5.30;;
5339;SDS011;2692;48.848;8.924;2022-12-18T15:47:36;12.00;;;7.47;;
5339;SDS011;2692;48.848;8.924;2022-12-18T15:50:01;11.47;;;6.37;;
5339;SDS011;2692;48.848;8.924;2022-12-18T15:52:27;12.03;;;7.40;;
5339;SDS011;2692;48.848;8.924;2022-12-18T15:54:52;8.00;;;5.87;;
5339;SDS011;2692;48.848;8.924;2022-12-18T15:57:36;6.77;;;5.90;;
5339;SDS011;2692;48.848;8.924;2022-12-18T16:00:02;10.60;;;6.67;;
5339;SDS011;2692;48.848;8.924;2022-12-18T16:02:27;11.00;;;7.00;;
5339;SDS011;2692;48.848;8.924;2022-12-18T16:04:53;7.33;;;5.77;;
5339;SDS011;2692;48.848;8.924;2022-12-18T16:07:19;12.60;;;7.93;;
5339;SDS011;2692;48.848;8.924;2022-12-18T16:09:44;10.20;;;7.00;;
5339;SDS011;2692;48.848;8.924;2022-12-18T16:12:13;11.50;;;7.60;;
5339;SDS011;2692;48.848;8.924;2022-12-18T16:14:39;9.93;;;6.73;;
5339;SDS011;2692;48.848;8.924;2022-12-18T16:17:05;10.47;;;8.07;;
5339;SDS011;2692;48.848;8.924;2022-12-18T16:19:30;15.13;;;7.77;;
5339;SDS011;2692;48.848;8.924;2022-12-18T16:21:57;18.47;;;9.27;;
5339;SDS011;2692;48.848;8.924;2022-12-18T16:24:26;6.87;;;5.20;;
5339;SDS011;2692;48.848;8.924;2022-12-18T16:26:52;7.93;;;5.93;;
5339;SDS011;2692;48.848;8.924;2022-12-18T16:29:18;14.30;;;7.80;;
5339;SDS011;2692;48.848;8.924;2022-12-18T16:31:43;9.10;;;5.80;;
5339;SDS011;2692;48.848;8.924;2022-12-18T16:36:36;8.20;;;7.17;;
5339;SDS011;2692;48.848;8.924;2022-12-18T16:39:02;9.67;;;6.23;;
5339;SDS011;2692;48.848;8.924;2022-12-18T16:41:27;9.73;;;5.40;;
5339;SDS011;2692;48.848;8.924;2022-12-18T16:43:55;6.67;;;5.43;;
5339;SDS011;2692;48.848;8.924;2022-12-18T16:46:21;17.10;;;7.57;;
5339;SDS011;2692;48.848;8.924;2022-12-18T16:48:46;7.30;;;5.50;;
5339;SDS011;2692;48.848;8.924;2022-12-18T16:51:11;6.55;;;5.38;;
5339;SDS011;2692;48.848;8.924;2022-12-18T16:53:36;14.35;;;8.00;;
5339;SDS011;2692;48.848;8.924;2022-12-18T16:56:01;8.80;;;6.57;;
5339;SDS011;2692;48.848;8.924;2022-12-18T16:58:26;9.63;;;6.90;;
5339;SDS011;2692;48.848;8.924;2022-12-18T17:00:51;10.40;;;6.90;;
5339;SDS011;2692;48.848;8.924;2022-12-18T17:03:17;9.90;;;6.60;;
5339;SDS011;2692;48.848;8.924;2022-12-18T17:05:42;12.25;;;6.25;;
5339;SDS011;2692;48.848;8.924;2022-12-18T17:08:07;13.17;;;7.87;;
5339;SDS011;2692;48.848;8.924;2022-12-18T17:10:34;9.50;;;5.83;;
5339;SDS011;2692;48.848;8.924;2022-12-18T17:12:59;10.40;;;7.17;;
5339;SDS011;2692;48.848;8.924;2022-12-18T17:15:25;17.13;;;7.70;;
5339;SDS011;2692;48.848;8.924;2022-12-18T17:17:50;10.63;;;6.63;;